Time;durP1;ratioP1;P1;durP2;ratioP2;P2;SDS_P1;SDS_P2;PMS_P1;PMS_P2;Temp;Humidity;BMP_temperature;BMP_pressure;BME280_temperature;BME280_humidity;BME280_pressure;Samples;Min_cycle;Max_cycle;Signal;HPM_P1;HPM_P2
2022/09/07 00:01:06;;;;;;;1.38;1.27;;;15.20;99.90;;;;;;4951581;28;20159;-79
2022/09/07 00:03:33;;;;;;;2.22;2.10;;;15.20;99.90;;;;;;4934958;28;20051;-78
2022/09/07 00:06:08;;;;;;;3.30;1.40;;;15.30;99.90;;;;;;4951239;29;20080;-79
2022/09/07 00:08:37;;;;;;;1.60;1.50;;;15.30;99.90;;;;;;4949885;28;20039;-79
2022/09/07 00:11:09;;;;;;;2.67;1.65;;;15.20;99.90;;;;;;4967090;28;20051;-78
2022/09/07 00:13:38;;;;;;;4.05;1.92;;;15.10;99.90;;;;;;4952048;28;20078;-79
2022/09/07 00:16:09;;;;;;;1.48;1.38;;;15.00;99.90;;;;;;4966790;28;20047;-79
2022/09/07 00:18:37;;;;;;;1.85;1.70;;;14.90;99.90;;;;;;4950287;29;20478;-79
2022/09/07 00:21:12;;;;;;;2.75;1.80;;;14.90;99.90;;;;;;4917996;29;20043;-79
2022/09/07 00:23:40;;;;;;;6.95;1.65;;;14.90;99.90;;;;;;4953227;28;20493;-81
2022/09/07 00:26:15;;;;;;;1.55;1.42;;;14.90;99.90;;;;;;4953340;29;20050;-79
2022/09/07 00:28:47;;;;;;;3.03;1.20;;;15.00;99.90;;;;;;4953502;28;20047;-79
2022/09/07 00:31:20;;;;;;;2.78;2.58;;;14.90;99.90;;;;;;4955523;29;20069;-79
2022/09/07 00:33:53;;;;;;;4.00;1.67;;;14.90;99.90;;;;;;4954513;28;20066;-79
2022/09/07 00:36:27;;;;;;;3.35;1.85;;;14.80;99.90;;;;;;4954877;28;20050;-79
2022/09/07 00:38:55;;;;;;;2.55;1.10;;;14.80;99.90;;;;;;4954766;29;20051;-79
2022/09/07 00:41:23;;;;;;;14.57;2.13;;;14.80;99.90;;;;;;4954786;28;20057;-79
2022/09/07 00:43:57;;;;;;;2.28;2.08;;;14.80;99.90;;;;;;4955004;28;20378;-79
2022/09/07 00:46:27;;;;;;;1.75;1.65;;;14.90;99.90;;;;;;4955247;29;20068;-79
2022/09/07 00:48:58;;;;;;;4.10;1.80;;;14.90;99.90;;;;;;4953296;28;20043;-79
2022/09/07 00:51:41;;;;;;;1.67;1.58;;;14.90;99.90;;;;;;4954652;29;20489;-79
2022/09/07 00:54:16;;;;;;;3.30;1.17;;;14.80;99.90;;;;;;4968209;28;20055;-79
2022/09/07 00:56:45;;;;;;;2.00;1.80;;;14.70;99.90;;;;;;4954329;28;20055;-79
2022/09/07 00:59:16;;;;;;;1.52;1.42;;;14.70;99.90;;;;;;4954974;29;20496;-79
2022/09/07 01:01:44;;;;;;;2.17;1.98;;;14.70;99.90;;;;;;4937464;28;20043;-79
2022/09/07 01:04:14;;;;;;;2.45;1.52;;;14.80;99.90;;;;;;4954394;28;20054;-79
2022/09/07 01:06:42;;;;;;;1.60;1.50;;;14.80;99.90;;;;;;4955252;29;20058;-79
2022/09/07 01:09:17;;;;;;;2.60;1.65;;;14.80;99.90;;;;;;4968611;28;20043;-79
2022/09/07 01:11:49;;;;;;;2.70;1.35;;;14.80;99.90;;;;;;4937517;28;20063;-79
2022/09/07 01:14:26;;;;;;;3.15;1.73;;;14.80;99.90;;;;;;4954946;29;20507;-79
2022/09/07 01:17:02;;;;;;;2.20;1.40;;;14.90;99.90;;;;;;4954416;28;20051;-79
2022/09/07 01:20:07;;;;;;;1.75;1.65;;;14.90;99.90;;;;;;4953458;29;20058;-79
2022/09/07 01:22:47;;;;;;;11.23;1.63;;;15.00;99.90;;;;;;4964623;28;20043;-79
2022/09/07 01:25:33;;;;;;;2.00;1.35;;;15.10;99.90;;;;;;4952348;28;20040;-79
2022/09/07 01:28:21;;;;;;;5.13;1.63;;;15.10;99.90;;;;;;4949818;28;20040;-79
2022/09/07 01:30:55;;;;;;;3.22;1.80;;;15.10;99.90;;;;;;4940426;29;20047;-79
2022/09/07 01:33:51;;;;;;;1.85;1.38;;;15.10;99.90;;;;;;4932057;28;20058;-79
2022/09/07 01:36:55;;;;;;;3.70;1.58;;;15.20;99.90;;;;;;4947023;28;20048;-79
2022/09/07 01:39:48;;;;;;;2.53;1.38;;;15.30;99.90;;;;;;4929652;29;20052;-79
2022/09/07 01:42:21;;;;;;;1.55;1.42;;;15.40;99.90;;;;;;4920799;29;20062;-79
2022/09/07 01:44:59;;;;;;;1.33;1.23;;;15.50;99.90;;;;;;4931911;28;20044;-79
2022/09/07 01:47:37;;;;;;;1.88;1.48;;;15.50;99.90;;;;;;4915290;29;20548;-78
2022/09/07 01:50:17;;;;;;;6.88;1.42;;;15.60;99.90;;;;;;4930793;29;20051;-79
2022/09/07 01:53:15;;;;;;;2.78;1.60;;;15.80;99.90;;;;;;4930128;28;20055;-79
2022/09/07 01:56:42;;;;;;;2.85;1.48;;;16.00;99.90;;;;;;4954373;28;20382;-90
2022/09/07 02:00:09;;;;;;;1.50;1.40;;;16.00;99.90;;;;;;4962657;28;20051;-78
2022/09/07 02:02:48;;;;;;;;;;;16.00;99.90;;;;;;4954413;29;20047;-78
2022/09/07 02:05:26;;;;;;;2.00;1.65;;;16.10;99.90;;;;;;4953931;28;19922;-78
2022/09/07 02:07:54;;;;;;;1.85;1.15;;;16.00;99.90;;;;;;4935321;28;20059;-78
2022/09/07 02:10:39;;;;;;;2.35;1.52;;;15.90;99.90;;;;;;4951616;29;20488;-78
2022/09/07 02:13:13;;;;;;;1.73;1.60;;;16.00;99.90;;;;;;4940183;28;20047;-78
2022/09/07 02:15:49;;;;;;;3.78;2.60;;;16.00;99.90;;;;;;4953613;28;20044;-78
2022/09/07 02:18:19;;;;;;;2.22;2.10;;;16.00;99.90;;;;;;4936702;29;20418;-78
2022/09/07 02:20:52;;;;;;;5.28;2.47;;;15.90;99.90;;;;;;4952643;28;20090;-78
2022/09/07 02:23:37;;;;;;;2.15;1.50;;;15.80;99.90;;;;;;4952627;28;20508;-78
2022/09/07 02:26:20;;;;;;;2.63;2.40;;;15.60;99.90;;;;;;4956688;28;20047;-79
2022/09/07 02:28:55;;;;;;;1.75;1.60;;;15.60;99.90;;;;;;4971922;28;20044;-79
2022/09/07 02:31:23;;;;;;;2.25;1.27;;;15.50;99.90;;;;;;4972509;28;20055;-78
2022/09/07 02:33:51;;;;;;;1.77;1.55;;;15.50;99.90;;;;;;4956848;28;20048;-79
2022/09/07 02:36:23;;;;;;;2.17;1.90;;;15.50;99.90;;;;;;4957083;28;20046;-79
2022/09/07 02:38:51;;;;;;;2.05;1.70;;;15.50;99.90;;;;;;4955124;29;20055;-79
2022/09/07 02:41:45;;;;;;;3.13;2.65;;;15.40;99.90;;;;;;4956183;28;20050;-78
2022/09/07 02:44:23;;;;;;;4.05;3.10;;;15.40;99.90;;;;;;4957991;28;20043;-79
2022/09/07 02:47:21;;;;;;;1.48;1.38;;;15.30;99.90;;;;;;4957637;29;20048;-78
2022/09/07 02:50:00;;;;;;;1.38;1.27;;;15.20;99.90;;;;;;4956775;28;20054;-78
2022/09/07 02:52:49;;;;;;;1.88;1.77;;;15.10;99.90;;;;;;4956587;28;20493;-79
2022/09/07 02:55:45;;;;;;;2.17;1.98;;;15.10;99.90;;;;;;4957511;29;20392;-79
2022/09/07 02:58:30;;;;;;;1.60;1.50;;;15.10;99.90;;;;;;4970034;28;20527;-79
2022/09/07 03:01:26;;;;;;;7.00;2.03;;;15.10;99.90;;;;;;4955469;28;20055;-79
2022/09/07 03:04:00;;;;;;;2.08;1.85;;;15.10;99.90;;;;;;4963820;28;20062;-79
2022/09/07 03:06:33;;;;;;;2.08;1.55;;;15.10;99.90;;;;;;4956974;29;20050;-78
2022/09/07 03:09:05;;;;;;;1.85;1.20;;;15.00;99.90;;;;;;4956306;28;20093;-78
2022/09/07 03:11:36;;;;;;;3.00;1.40;;;15.00;99.90;;;;;;4955469;29;20063;-79
2022/09/07 03:14:19;;;;;;;2.63;1.50;;;14.90;99.90;;;;;;4967746;28;20043;-79
2022/09/07 03:16:51;;;;;;;1.70;1.60;;;14.90;99.90;;;;;;4935969;28;20075;-78
2022/09/07 03:19:19;;;;;;;1.67;1.58;;;14.80;99.90;;;;;;4967953;28;20055;-79
2022/09/07 03:21:47;;;;;;;2.80;2.53;;;14.80;99.90;;;;;;4951779;28;20045;-78
2022/09/07 03:24:15;;;;;;;4.05;1.92;;;14.80;99.90;;;;;;4951460;28;20043;-78
2022/09/07 03:26:47;;;;;;;5.82;1.83;;;14.80;99.90;;;;;;4937435;29;20401;-79
2022/09/07 03:29:22;;;;;;;1.50;1.40;;;14.90;99.90;;;;;;4932011;28;20048;-78
2022/09/07 03:31:50;;;;;;;1.90;1.50;;;14.90;99.90;;;;;;4913741;29;20403;-78
2022/09/07 03:34:18;;;;;;;4.82;2.38;;;14.90;99.90;;;;;;4929432;29;20060;-78
2022/09/07 03:36:46;;;;;;;1.70;1.60;;;15.00;99.90;;;;;;4897571;29;20402;-79
2022/09/07 03:39:13;;;;;;;2.65;2.25;;;15.00;99.90;;;;;;4897428;29;20411;-78
2022/09/07 03:41:41;;;;;;;3.13;2.15;;;15.00;99.90;;;;;;4898899;29;20071;-79
2022/09/07 03:44:10;;;;;;;2.60;1.50;;;14.90;99.90;;;;;;4928766;28;20063;-78
2022/09/07 03:46:38;;;;;;;2.95;1.85;;;14.80;99.90;;;;;;4899155;29;20506;-78
2022/09/07 03:49:05;;;;;;;2.80;1.65;;;14.70;99.90;;;;;;4896957;29;20123;-79
2022/09/07 03:51:33;;;;;;;1.50;1.40;;;14.60;99.90;;;;;;4899481;29;20048;-79
2022/09/07 03:54:01;;;;;;;7.13;1.50;;;14.40;99.90;;;;;;4897097;29;20075;-79
2022/09/07 03:56:28;;;;;;;3.60;2.28;;;14.40;99.90;;;;;;4899116;29;20045;-79
2022/09/07 03:58:56;;;;;;;2.75;2.55;;;14.40;99.90;;;;;;4898877;29;20055;-79
2022/09/07 04:01:25;;;;;;;3.40;1.73;;;14.40;99.90;;;;;;4929185;28;20056;-79
2022/09/07 04:03:57;;;;;;;3.30;2.38;;;14.40;99.90;;;;;;4897605;29;20083;-79
2022/09/07 04:06:29;;;;;;;5.00;2.33;;;14.40;99.90;;;;;;4898046;29;20053;-79
2022/09/07 04:09:02;;;;;;;2.42;2.33;;;14.40;99.90;;;;;;4921805;28;20052;-79
2022/09/07 04:11:30;;;;;;;3.33;1.70;;;14.40;99.90;;;;;;4917833;29;20059;-79
2022/09/07 04:13:58;;;;;;;1.98;1.77;;;14.40;99.90;;;;;;4931919;28;20048;-79
2022/09/07 04:16:26;;;;;;;1.52;1.42;;;14.50;99.90;;;;;;4917453;28;20051;-79
2022/09/07 04:18:54;;;;;;;2.20;2.03;;;14.40;99.90;;;;;;4931960;29;20486;-79
2022/09/07 04:21:24;;;;;;;12.40;4.85;;;14.40;99.90;;;;;;4917346;28;20490;-79
2022/09/07 04:23:52;;;;;;;5.03;2.65;;;14.40;99.90;;;;;;4947630;28;20051;-79
2022/09/07 04:26:26;;;;;;;3.20;2.13;;;14.50;99.90;;;;;;4948018;29;20371;-79
2022/09/07 04:28:54;;;;;;;4.28;2.03;;;14.50;99.90;;;;;;4915681;29;20047;-79
2022/09/07 04:31:22;;;;;;;1.80;1.70;;;14.60;99.90;;;;;;4917790;29;20052;-79
2022/09/07 04:33:50;;;;;;;4.75;2.28;;;14.70;99.90;;;;;;4931574;28;20687;-79
2022/09/07 04:36:19;;;;;;;2.53;2.17;;;14.80;99.90;;;;;;4915838;29;20048;-79
2022/09/07 04:38:52;;;;;;;1.50;1.40;;;14.80;99.90;;;;;;4915973;29;20048;-79
2022/09/07 04:41:21;;;;;;;5.82;2.17;;;14.80;99.90;;;;;;4931671;28;20056;-79
2022/09/07 04:43:53;;;;;;;2.25;2.05;;;14.80;99.90;;;;;;4915952;28;20059;-79
2022/09/07 04:46:25;;;;;;;2.97;1.85;;;14.80;99.90;;;;;;4900566;29;20074;-79
2022/09/07 04:48:56;;;;;;;1.52;1.40;;;14.80;99.90;;;;;;4915201;29;20059;-80
2022/09/07 04:51:26;;;;;;;2.03;1.80;;;14.80;99.90;;;;;;4931563;29;20048;-79
2022/09/07 04:53:55;;;;;;;2.70;2.23;;;14.90;99.90;;;;;;4916500;28;20048;-80
2022/09/07 04:56:23;;;;;;;3.25;2.10;;;14.90;99.90;;;;;;4923050;28;20048;-79
2022/09/07 04:58:51;;;;;;;1.92;1.80;;;14.80;99.90;;;;;;4935740;29;20067;-79
2022/09/07 05:01:22;;;;;;;2.92;2.65;;;14.80;99.90;;;;;;4935599;28;20047;-79
2022/09/07 05:03:50;;;;;;;4.68;3.63;;;14.80;99.90;;;;;;4934011;28;20059;-79
2022/09/07 05:06:20;;;;;;;3.38;3.08;;;14.70;99.90;;;;;;4935340;29;20055;-79
2022/09/07 05:08:54;;;;;;;1.80;1.70;;;14.70;99.90;;;;;;4935093;28;20044;-79
2022/09/07 05:11:23;;;;;;;2.42;2.10;;;14.60;99.90;;;;;;4935948;29;20055;-79
2022/09/07 05:14:00;;;;;;;3.58;2.63;;;14.60;99.90;;;;;;4935466;28;20059;-79
2022/09/07 05:16:29;;;;;;;2.50;2.30;;;14.60;99.90;;;;;;4949922;28;20501;-79
2022/09/07 05:19:00;;;;;;;6.15;2.60;;;14.60;99.90;;;;;;4950422;29;20405;-79
2022/09/07 05:21:30;;;;;;;2.72;2.53;;;14.80;99.90;;;;;;4935259;28;20070;-79
2022/09/07 05:23:59;;;;;;;3.20;2.90;;;14.90;99.90;;;;;;4933794;29;20047;-79
2022/09/07 05:26:29;;;;;;;3.97;2.67;;;15.00;99.90;;;;;;4935771;29;20498;-79
2022/09/07 05:29:03;;;;;;;9.90;2.57;;;15.10;99.90;;;;;;4934920;28;20498;-79
2022/09/07 05:31:50;;;;;;;2.55;2.38;;;15.20;99.90;;;;;;4933743;29;20048;-79
2022/09/07 05:34:18;;;;;;;2.60;2.25;;;15.30;99.90;;;;;;4935575;29;20397;-79
2022/09/07 05:37:01;;;;;;;2.45;2.25;;;15.40;99.90;;;;;;4949822;28;20052;-79
2022/09/07 05:39:29;;;;;;;2.22;2.00;;;15.50;99.90;;;;;;4949542;29;20040;-79
2022/09/07 05:41:57;;;;;;;7.70;1.88;;;15.50;99.90;;;;;;4935084;28;20048;-79
2022/09/07 05:44:25;;;;;;;3.53;2.03;;;15.50;99.90;;;;;;4949656;28;20060;-79
2022/09/07 05:47:08;;;;;;;4.00;2.33;;;15.50;99.90;;;;;;4935507;29;20051;-79
2022/09/07 05:49:36;;;;;;;2.17;2.08;;;15.60;99.90;;;;;;4935006;28;20052;-79
2022/09/07 05:52:04;;;;;;;2.38;2.08;;;15.60;99.90;;;;;;4933788;28;20055;-79
2022/09/07 05:54:31;;;;;;;3.97;2.38;;;15.60;99.90;;;;;;4949844;29;20050;-79
2022/09/07 05:57:01;;;;;;;3.72;1.92;;;15.60;99.90;;;;;;4934941;28;20040;-79
2022/09/07 05:59:29;;;;;;;4.60;2.03;;;15.60;99.90;;;;;;4935100;29;20063;-79
2022/09/07 06:01:57;;;;;;;2.20;2.00;;;15.60;99.90;;;;;;4953453;28;20047;-79
2022/09/07 06:04:25;;;;;;;3.30;2.55;;;15.70;99.90;;;;;;4952899;28;20047;-79
2022/09/07 06:06:53;;;;;;;2.28;2.08;;;15.70;99.90;;;;;;4939095;29;20051;-79
2022/09/07 06:09:40;;;;;;;4.57;2.67;;;15.70;99.90;;;;;;4937480;28;20481;-79
2022/09/07 06:12:28;;;;;;;3.85;2.55;;;15.80;99.90;;;;;;4950536;28;20051;-79
2022/09/07 06:14:55;;;;;;;5.45;2.17;;;15.80;99.90;;;;;;4938984;29;20069;-79
2022/09/07 06:17:23;;;;;;;3.50;1.73;;;15.90;99.90;;;;;;4938341;28;20048;-79
2022/09/07 06:19:51;;;;;;;4.72;1.80;;;15.90;99.90;;;;;;4938403;28;20043;-79
2022/09/07 06:22:19;;;;;;;2.88;1.70;;;16.00;99.90;;;;;;4953292;29;20061;-79
2022/09/07 06:24:47;;;;;;;3.97;1.80;;;16.10;99.90;;;;;;4938254;28;20051;-79
2022/09/07 06:27:14;;;;;;;2.05;1.88;;;16.10;99.90;;;;;;4953064;29;20055;-78
2022/09/07 06:29:42;;;;;;;1.63;1.52;;;16.20;99.90;;;;;;4938095;28;20048;-79
2022/09/07 06:32:10;;;;;;;2.35;2.15;;;16.20;99.90;;;;;;4938144;28;20494;-78
2022/09/07 06:34:57;;;;;;;2.78;2.22;;;16.30;99.90;;;;;;4938439;29;20043;-79
2022/09/07 06:37:25;;;;;;;2.03;1.92;;;16.40;99.90;;;;;;4952454;28;20504;-79
2022/09/07 06:39:53;;;;;;;3.40;1.73;;;16.50;99.90;;;;;;4952378;28;20056;-79
2022/09/07 06:42:20;;;;;;;2.08;1.65;;;16.50;99.90;;;;;;4937035;29;20052;-79
2022/09/07 06:44:52;;;;;;;1.98;1.88;;;16.60;99.90;;;;;;4936770;29;20043;-79
2022/09/07 06:47:20;;;;;;;4.05;1.58;;;16.70;99.90;;;;;;4938301;29;20055;-79
2022/09/07 06:49:47;;;;;;;3.47;1.60;;;16.80;99.90;;;;;;4937724;28;20051;-79
2022/09/07 06:52:15;;;;;;;1.98;1.80;;;16.90;99.90;;;;;;4937826;28;20059;-79
2022/09/07 06:54:43;;;;;;;4.13;2.47;;;17.10;99.90;;;;;;4938149;29;20050;-79
2022/09/07 06:57:38;;;;;;;1.95;1.85;;;17.30;99.90;;;;;;4937749;28;20055;-79
2022/09/07 07:00:06;;;;;;;2.25;2.05;;;17.40;99.90;;;;;;4936339;29;20043;-79
2022/09/07 07:02:33;;;;;;;4.13;2.30;;;17.40;99.90;;;;;;4937637;29;20047;-78
2022/09/07 07:05:01;;;;;;;2.35;2.15;;;17.30;99.90;;;;;;4937337;28;20051;-79
2022/09/07 07:07:29;;;;;;;2.60;1.65;;;17.30;99.90;;;;;;4937723;29;20055;-79
2022/09/07 07:09:57;;;;;;;2.30;1.80;;;17.30;99.90;;;;;;4951186;28;20048;-78
2022/09/07 07:12:25;;;;;;;4.80;2.35;;;17.30;99.90;;;;;;4952001;28;20055;-79
2022/09/07 07:14:51;;;;;;;3.17;1.40;;;17.40;99.90;;;;;;4937845;29;20036;-79
2022/09/07 07:17:19;;;;;;;2.38;1.98;;;17.40;99.90;;;;;;4937078;28;20409;-79
2022/09/07 07:19:47;;;;;;;10.65;2.08;;;17.40;99.90;;;;;;4936766;28;20048;-79
2022/09/07 07:22:14;;;;;;;4.30;1.45;;;17.40;99.90;;;;;;4936535;29;20052;-79
2022/09/07 07:25:02;;;;;;;2.47;1.80;;;17.40;99.90;;;;;;4951659;29;20051;-80
2022/09/07 07:27:30;;;;;;;4.55;1.90;;;17.90;99.90;;;;;;4935380;29;20048;-80
2022/09/07 07:29:58;;;;;;;8.43;5.03;;;18.30;99.90;;;;;;4918819;29;20406;-80
2022/09/07 07:32:26;;;;;;;4.60;2.00;;;18.60;99.90;;;;;;4935626;29;20059;-80
2022/09/07 07:34:54;;;;;;;2.25;1.83;;;18.60;99.90;;;;;;4936186;29;20056;-80
2022/09/07 07:37:21;;;;;;;4.13;1.83;;;18.60;99.90;;;;;;4957393;28;20048;-80
2022/09/07 07:39:55;;;;;;;3.63;1.75;;;18.80;99.90;;;;;;4936784;28;20051;-80
2022/09/07 07:42:43;;;;;;;3.72;2.80;;;19.00;99.90;;;;;;4935960;29;20047;-80
2022/09/07 07:45:12;;;;;;;4.75;2.03;;;19.30;99.90;;;;;;4935576;28;20413;-80
2022/09/07 07:47:59;;;;;;;2.88;1.85;;;19.40;99.90;;;;;;4936088;28;20036;-80
2022/09/07 07:50:27;;;;;;;4.30;2.53;;;19.50;99.90;;;;;;4929712;29;20051;-81
2022/09/07 07:52:59;;;;;;;2.25;1.65;;;19.60;99.90;;;;;;4927730;29;20079;-80
2022/09/07 07:55:47;;;;;;;2.28;2.08;;;19.80;99.90;;;;;;4935025;29;20051;-78
2022/09/07 07:58:27;;;;;;;3.40;1.38;;;20.00;99.90;;;;;;4917244;29;20056;-80
2022/09/07 08:01:00;;;;;;;1.83;1.48;;;20.10;99.90;;;;;;4916939;28;20056;-79
2022/09/07 08:03:28;;;;;;;3.35;1.95;;;20.40;99.90;;;;;;4916526;29;20048;-82
2022/09/07 08:06:07;;;;;;;1.65;1.50;;;20.60;99.90;;;;;;4917090;28;20051;-88
2022/09/07 08:08:36;;;;;;;4.40;2.35;;;20.70;99.90;;;;;;4917142;28;20414;-89
2022/09/07 08:11:08;;;;;;;1.90;1.42;;;20.70;99.90;;;;;;4918189;29;20052;-89
2022/09/07 08:13:39;;;;;;;6.85;2.38;;;20.70;99.90;;;;;;4951383;28;20056;-85
2022/09/07 08:16:08;;;;;;;4.35;1.95;;;20.50;99.90;;;;;;4939843;28;20051;-89
2022/09/07 08:18:37;;;;;;;2.63;1.55;;;20.30;99.90;;;;;;4917450;29;20056;-88
2022/09/07 08:21:09;;;;;;;2.92;1.83;;;20.30;99.90;;;;;;4914644;29;20411;-88
2022/09/07 08:23:37;;;;;;;3.50;2.03;;;20.50;99.90;;;;;;4917706;29;20059;-88
2022/09/07 08:26:06;;;;;;;2.40;1.77;;;20.70;99.90;;;;;;4921819;29;20055;-87
2022/09/07 08:28:39;;;;;;;3.55;1.48;;;21.00;99.90;;;;;;4936028;29;20116;-87
2022/09/07 08:31:09;;;;;;;2.15;1.83;;;21.10;99.90;;;;;;4936469;29;20055;-87
2022/09/07 08:33:38;;;;;;;1.60;1.35;;;21.20;99.90;;;;;;4931881;29;20402;-85
2022/09/07 08:36:12;;;;;;;2.13;1.60;;;21.20;99.90;;;;;;4931603;29;20501;-84
2022/09/07 08:38:40;;;;;;;1.60;1.50;;;21.20;99.90;;;;;;4931501;29;20055;-89
2022/09/07 08:41:29;;;;;;;6.22;1.70;;;21.20;99.90;;;;;;4916921;29;20052;-86
2022/09/07 08:44:00;;;;;;;6.82;2.28;;;21.10;99.90;;;;;;4916766;29;20036;-86
2022/09/07 08:46:40;;;;;;;2.67;1.52;;;21.10;99.90;;;;;;4917271;29;20051;-87
2022/09/07 08:49:19;;;;;;;1.90;1.70;;;21.20;99.90;;;;;;4930927;28;20051;-87
2022/09/07 08:51:56;;;;;;;3.03;1.77;;;21.20;99.90;;;;;;4937090;28;20051;-88
2022/09/07 08:54:23;;;;;;;2.25;1.63;;;21.30;99.90;;;;;;4935208;29;20054;-89
2022/09/07 08:59:56;;;;;;;4.82;2.25;;;21.30;99.90;;;;;;4935406;28;20043;-87
2022/09/07 09:02:25;;;;;;;7.00;1.52;;;21.40;99.90;;;;;;4935995;29;20044;-82
2022/09/07 09:04:54;;;;;;;3.92;2.08;;;21.30;99.90;;;;;;4935539;28;20052;-84
2022/09/07 09:07:51;;;;;;;1.63;1.48;;;21.30;99.90;;;;;;4935426;28;20043;-83
2022/09/07 09:10:26;;;;;;;8.38;2.88;;;21.40;99.90;;;;;;4950917;28;20485;-83
2022/09/07 09:13:00;;;;;;;2.40;2.20;;;21.60;99.90;;;;;;4931099;28;20055;-83
2022/09/07 09:15:51;;;;;;;1.63;1.52;;;21.70;99.90;;;;;;4931422;29;20087;-81
2022/09/07 09:19:10;;;;;;;6.20;2.55;;;21.70;99.90;;;;;;4944413;29;20056;-88
2022/09/07 09:21:40;;;;;;;11.30;1.85;;;21.80;99.90;;;;;;4932194;29;20047;-86
2022/09/07 09:24:18;;;;;;;5.95;2.60;;;21.90;99.90;;;;;;4938696;28;20058;-86
2022/09/07 09:26:59;;;;;;;10.93;2.60;;;22.10;99.90;;;;;;4969899;28;20051;-84
2022/09/07 09:29:26;;;;;;;2.15;1.70;;;22.10;99.90;;;;;;4969285;28;20047;-85
2022/09/07 09:31:55;;;;;;;20.08;4.88;;;22.10;99.90;;;;;;4944595;28;20059;-86
2022/09/07 09:34:23;;;;;;;9.48;2.45;;;22.10;99.90;;;;;;4918154;29;20048;-86
2022/09/07 09:36:57;;;;;;;1.55;1.23;;;22.20;99.90;;;;;;4918840;29;20040;-85
2022/09/07 09:39:31;;;;;;;19.25;4.55;;;22.30;99.90;;;;;;4903295;29;20478;-86
2022/09/07 09:42:15;;;;;;;3.05;2.13;;;22.40;99.90;;;;;;4936643;28;20059;-83
2022/09/07 09:44:44;;;;;;;9.10;2.88;;;22.50;99.90;;;;;;4938796;28;20047;-87
2022/09/07 09:47:47;;;;;;;1.88;1.50;;;22.50;99.90;;;;;;4953990;29;20044;-87
2022/09/07 09:50:27;;;;;;;2.63;2.22;;;22.50;99.90;;;;;;4936541;29;20044;-88
2022/09/07 09:53:24;;;;;;;10.57;2.67;;;22.50;99.90;;;;;;4938437;28;20044;-89
2022/09/07 09:55:53;;;;;;;12.82;2.10;;;22.70;99.90;;;;;;4953659;28;20486;-88
2022/09/07 09:58:39;;;;;;;7.32;1.50;;;22.90;99.90;;;;;;4953616;29;20474;-85
2022/09/07 10:01:33;;;;;;;2.47;1.50;;;23.10;99.90;;;;;;4950803;28;20051;-85
2022/09/07 10:04:33;;;;;;;5.13;2.25;;;23.20;99.90;;;;;;4937334;28;20051;-87
2022/09/07 10:07:23;;;;;;;4.50;1.65;;;23.30;99.90;;;;;;4957101;28;20058;-87
2022/09/07 10:09:53;;;;;;;2.42;2.05;;;23.40;99.90;;;;;;4940030;28;20067;-82
2022/09/07 10:12:33;;;;;;;3.17;2.10;;;23.60;99.90;;;;;;4938101;28;20039;-82
2022/09/07 10:15:03;;;;;;;4.43;1.92;;;23.60;99.90;;;;;;4944034;29;20058;-82
2022/09/07 10:17:33;;;;;;;;;;;23.60;99.90;;;;;;4948257;29;20043;-78
2022/09/07 10:20:21;;;;;;;3.78;1.92;;;23.60;99.90;;;;;;4956906;28;19922;-78
2022/09/07 10:22:51;;;;;;;8.93;3.35;;;23.60;99.90;;;;;;4972001;28;20081;-79
2022/09/07 10:25:40;;;;;;;3.92;1.42;;;23.70;99.90;;;;;;4971385;28;20426;-78
2022/09/07 10:28:14;;;;;;;5.03;1.63;;;23.70;99.90;;;;;;4955031;28;20059;-79
2022/09/07 10:30:45;;;;;;;4.90;1.60;;;23.80;99.90;;;;;;4956800;29;20401;-77
2022/09/07 10:33:18;;;;;;;1.67;1.58;;;23.80;99.90;;;;;;4955941;28;20058;-78
2022/09/07 10:36:02;;;;;;;4.72;1.40;;;23.80;99.90;;;;;;4956142;28;20699;-76
2022/09/07 10:38:39;;;;;;;5.75;1.85;;;23.90;99.90;;;;;;4951220;29;20060;-78
2022/09/07 10:41:09;;;;;;;2.33;2.05;;;23.80;99.90;;;;;;4937388;28;20055;-80
2022/09/07 10:43:49;;;;;;;10.65;2.40;;;23.60;99.90;;;;;;4935350;28;20048;-75
2022/09/07 10:46:31;;;;;;;4.13;2.17;;;23.50;99.90;;;;;;4934847;29;20052;-77
2022/09/07 10:49:28;;;;;;;2.03;1.67;;;23.50;99.90;;;;;;4935985;29;20816;-76
2022/09/07 10:52:12;;;;;;;4.15;1.83;;;23.60;99.90;;;;;;4950951;28;20047;-76
2022/09/07 10:55:06;;;;;;;1.73;1.63;;;23.90;99.90;;;;;;4936019;29;20056;-77
2022/09/07 10:57:57;;;;;;;1.83;1.33;;;23.90;99.90;;;;;;4933142;29;20044;-80
2022/09/07 11:00:35;;;;;;;5.30;2.10;;;24.00;99.90;;;;;;4937361;28;20048;-82
2022/09/07 11:03:17;;;;;;;1.70;1.60;;;23.80;99.90;;;;;;4937976;29;20051;-84
2022/09/07 11:06:20;;;;;;;3.60;2.63;;;23.50;99.90;;;;;;4937432;29;20772;-82
2022/09/07 11:09:19;;;;;;;1.60;1.33;;;23.60;99.90;;;;;;4949738;28;20050;-76
2022/09/07 11:12:05;;;;;;;3.40;1.98;;;23.50;99.90;;;;;;4935979;28;20056;-77
2022/09/07 11:14:49;;;;;;;3.10;2.28;;;23.50;99.90;;;;;;4917346;29;20391;-77
2022/09/07 11:17:22;;;;;;;2.38;1.60;;;23.30;99.90;;;;;;4916922;28;20442;-76
2022/09/07 11:20:08;;;;;;;5.32;1.58;;;23.30;99.90;;;;;;4915567;29;20052;-77
2022/09/07 11:22:44;;;;;;;1.88;1.10;;;23.20;99.90;;;;;;4919695;29;20043;-79
2022/09/07 11:25:30;;;;;;;4.55;1.42;;;23.10;99.90;;;;;;4935385;28;20055;-77
2022/09/07 11:28:00;;;;;;;4.53;1.42;;;23.10;99.90;;;;;;4935582;28;20054;-78
2022/09/07 11:30:32;;;;;;;2.60;1.60;;;23.20;99.90;;;;;;4947489;29;20051;-79
2022/09/07 11:33:24;;;;;;;1.10;0.85;;;23.20;99.90;;;;;;4936301;28;20052;-79
2022/09/07 11:36:14;;;;;;;1.48;1.30;;;23.30;99.90;;;;;;4936352;29;20051;-79
2022/09/07 11:38:49;;;;;;;5.78;1.40;;;23.50;99.90;;;;;;4935669;29;20489;-79
2022/09/07 11:41:29;;;;;;;6.72;1.70;;;23.60;99.90;;;;;;4932744;28;20425;-77
2022/09/07 11:44:20;;;;;;;2.00;1.20;;;23.70;99.90;;;;;;4934629;28;20096;-76
2022/09/07 11:47:01;;;;;;;6.53;2.85;;;23.80;99.90;;;;;;4935423;29;20067;-76
2022/09/07 11:49:29;;;;;;;6.10;1.42;;;23.70;99.90;;;;;;4934491;28;20058;-77
2022/09/07 11:51:57;;;;;;;6.88;2.97;;;23.80;99.90;;;;;;4949907;28;20485;-77
2022/09/07 11:54:31;;;;;;;1.60;1.42;;;23.80;99.90;;;;;;4934922;29;20058;-77
2022/09/07 11:57:10;;;;;;;2.30;1.65;;;23.90;99.90;;;;;;4934166;28;20413;-76
2022/09/07 11:59:55;;;;;;;4.43;1.60;;;24.00;99.90;;;;;;4934655;28;20052;-77
2022/09/07 12:03:02;;;;;;;1.92;1.10;;;24.10;99.90;;;;;;4935290;29;20496;-77
2022/09/07 12:06:04;;;;;;;5.28;2.13;;;24.20;99.90;;;;;;4934859;28;20044;-76
2022/09/07 12:09:02;;;;;;;1.08;0.98;;;24.20;99.90;;;;;;4927685;28;20462;-76
2022/09/07 12:11:32;;;;;;;2.47;1.85;;;24.00;99.90;;;;;;4930893;29;20052;-77
2022/09/07 12:14:11;;;;;;;2.75;2.47;;;23.90;99.90;;;;;;4933202;29;20055;-77
2022/09/07 12:16:50;;;;;;;1.52;1.25;;;23.80;99.90;;;;;;4934667;28;20058;-76
2022/09/07 12:19:23;;;;;;;1.58;1.08;;;24.00;99.90;;;;;;4934621;29;20406;-76
2022/09/07 12:21:51;;;;;;;4.32;2.35;;;24.10;99.90;;;;;;4934649;28;20106;-76
2022/09/07 12:24:31;;;;;;;2.58;2.28;;;24.30;99.90;;;;;;4933935;28;20500;-76
2022/09/07 12:27:00;;;;;;;5.78;2.47;;;24.30;99.90;;;;;;4934851;29;20043;-76
2022/09/07 12:29:30;;;;;;;2.03;1.73;;;24.40;99.90;;;;;;4950382;28;20059;-81
2022/09/07 12:32:02;;;;;;;2.22;1.58;;;24.40;99.90;;;;;;4935982;28;20408;-80
2022/09/07 12:34:52;;;;;;;1.42;1.20;;;24.50;99.90;;;;;;4936252;29;20393;-81
2022/09/07 12:37:26;;;;;;;3.65;2.00;;;24.50;99.90;;;;;;4935833;28;20051;-81
2022/09/07 12:40:27;;;;;;;2.33;1.80;;;24.30;99.90;;;;;;4935665;28;20051;-80
2022/09/07 12:43:13;;;;;;;9.57;2.10;;;24.20;99.90;;;;;;4935378;29;20060;-81
2022/09/07 12:45:41;;;;;;;1.88;1.73;;;24.30;99.90;;;;;;4935828;28;20507;-81
2022/09/07 12:48:15;;;;;;;1.70;1.50;;;24.40;99.90;;;;;;4950039;28;20048;-80
2022/09/07 12:50:51;;;;;;;2.78;1.65;;;24.40;99.90;;;;;;4935728;29;20062;-80
2022/09/07 12:53:47;;;;;;;3.28;3.05;;;24.40;99.90;;;;;;4933820;28;20051;-82
2022/09/07 12:56:48;;;;;;;4.72;1.88;;;24.30;99.90;;;;;;4926171;28;20504;-80
2022/09/07 13:00:11;;;;;;;10.65;2.00;;;24.10;99.90;;;;;;4925508;28;20413;-80
2022/09/07 13:03:09;;;;;;;2.15;1.50;;;24.10;99.90;;;;;;4935884;29;20425;-80
2022/09/07 13:06:23;;;;;;;2.15;1.35;;;24.00;99.90;;;;;;4928193;29;20044;-80
2022/09/07 13:09:28;;;;;;;3.58;1.75;;;24.00;99.90;;;;;;4945709;28;20039;-81
2022/09/07 13:11:56;;;;;;;10.23;2.35;;;24.10;99.90;;;;;;4934738;28;20044;-80
2022/09/07 13:14:26;;;;;;;2.00;1.45;;;24.10;99.90;;;;;;4935771;29;20048;-79
2022/09/07 13:17:32;;;;;;;4.15;1.88;;;24.10;99.90;;;;;;4934916;28;20055;-80
2022/09/07 13:20:04;;;;;;;2.65;1.85;;;24.10;99.90;;;;;;4936063;28;20048;-79
2022/09/07 13:22:32;;;;;;;3.75;1.55;;;24.20;99.90;;;;;;4934044;29;20066;-79
2022/09/07 13:25:25;;;;;;;2.53;1.33;;;24.30;99.90;;;;;;4946916;28;20044;-82
2022/09/07 13:28:03;;;;;;;2.35;1.48;;;24.40;99.90;;;;;;4953759;28;20117;-80
2022/09/07 13:30:32;;;;;;;1.73;1.60;;;24.60;99.90;;;;;;4946735;29;20488;-78
2022/09/07 13:33:27;;;;;;;3.28;2.60;;;24.70;99.90;;;;;;4923931;28;20050;-79
2022/09/07 13:36:04;;;;;;;2.20;1.33;;;24.80;99.90;;;;;;4916014;28;20510;-79
2022/09/07 13:38:40;;;;;;;3.40;1.83;;;24.80;99.90;;;;;;4915877;29;20040;-82